Time;durP1;ratioP1;P1;durP2;ratioP2;P2;SDS_P1;SDS_P2;PMS_P1;PMS_P2;Temp;Humidity;BMP_temperature;BMP_pressure;BME280_temperature;BME280_humidity;BME280_pressure;Samples;Min_cycle;Max_cycle;Signal;HPM_P1;HPM_P2
2023/06/09 00:01:14;;;;;;;18.73;5.60;;;;;;;16.79;64.44;101789.94;7388149;19;20048;-58
2023/06/09 00:03:41;;;;;;;11.68;5.00;;;;;;;16.80;64.40;101786.28;7385971;19;20021;-58
2023/06/09 00:06:10;;;;;;;17.77;5.85;;;;;;;16.74;64.69;101783.25;7389439;19;20044;-58
2023/06/09 00:08:37;;;;;;;15.90;5.22;;;;;;;16.66;64.87;101786.53;7387362;19;20022;-59
2023/06/09 00:11:04;;;;;;;15.68;5.72;;;;;;;16.56;65.19;101781.13;7388597;19;20014;-59
2023/06/09 00:13:31;;;;;;;13.77;5.03;;;;;;;16.61;64.98;101774.53;7387627;19;20036;-58
2023/06/09 00:15:58;;;;;;;13.63;5.18;;;;;;;16.56;65.25;101780.28;7387632;19;20019;-58
2023/06/09 00:18:25;;;;;;;13.18;5.10;;;;;;;16.60;65.05;101776.38;7389445;19;20039;-59
2023/06/09 00:20:52;;;;;;;14.25;5.50;;;;;;;16.61;65.13;101778.06;7388155;19;20098;-58
2023/06/09 00:23:20;;;;;;;15.75;5.88;;;;;;;16.57;65.54;101781.97;7389334;19;20026;-59
2023/06/09 00:25:47;;;;;;;15.55;6.65;;;;;;;16.40;65.97;101769.13;7387242;19;20550;-59
2023/06/09 00:28:14;;;;;;;15.02;5.55;;;;;;;16.46;65.66;101769.47;7389278;19;20082;-59
2023/06/09 00:30:41;;;;;;;15.13;5.22;;;;;;;16.49;65.61;101760.34;7388659;19;20022;-59
2023/06/09 00:33:08;;;;;;;15.18;5.60;;;;;;;16.49;65.77;101766.56;7385821;19;20011;-59
2023/06/09 00:35:36;;;;;;;14.32;5.60;;;;;;;16.46;65.68;101760.59;7387240;19;20055;-58
2023/06/09 00:38:04;;;;;;;16.40;5.75;;;;;;;16.30;66.31;101761.88;7388815;19;20022;-58
2023/06/09 00:40:31;;;;;;;14.95;5.80;;;;;;;16.30;66.22;101763.69;7388519;19;20124;-58
2023/06/09 00:42:59;;;;;;;16.80;5.95;;;;;;;16.29;66.37;101770.00;7386997;19;20030;-58
2023/06/09 00:45:26;;;;;;;15.07;5.18;;;;;;;16.32;66.46;101761.72;7386737;19;20022;-58
2023/06/09 00:47:54;;;;;;;13.80;4.70;;;;;;;16.25;66.73;101760.53;7388395;19;20014;-58
2023/06/09 00:50:21;;;;;;;14.20;4.15;;;;;;;16.24;66.58;101758.84;7388560;19;20330;-58
2023/06/09 00:52:51;;;;;;;14.35;5.30;;;;;;;16.17;66.74;101755.81;7389214;19;20488;-58
2023/06/09 00:55:19;;;;;;;13.85;4.82;;;;;;;16.16;67.01;101762.13;7394019;19;20022;-58
2023/06/09 00:57:48;;;;;;;12.30;4.70;;;;;;;16.17;67.18;101765.66;7395737;19;20025;-59
2023/06/09 01:00:16;;;;;;;14.48;4.82;;;;;;;16.11;67.25;101760.81;7395235;19;20018;-57
2023/06/09 01:02:44;;;;;;;13.25;4.75;;;;;;;16.13;67.16;101764.19;7394887;19;20015;-54
2023/06/09 01:05:12;;;;;;;12.43;4.60;;;;;;;16.11;66.85;101760.81;7393931;19;20376;-56
2023/06/09 01:08:00;;;;;;;12.90;4.70;;;;;;;16.21;66.75;101751.91;7395787;19;20019;-54
2023/06/09 01:11:00;;;;;;;14.52;4.85;;;;;;;16.06;67.25;101763.84;7395062;19;20018;-55
2023/06/09 01:13:36;;;;;;;10.20;4.25;;;;;;;16.05;67.32;101756.81;7392630;19;20014;-55
2023/06/09 01:16:13;;;;;;;15.05;4.95;;;;;;;16.05;67.10;101757.66;7392800;19;20029;-53
2023/06/09 01:18:42;;;;;;;13.27;5.25;;;;;;;16.01;67.40;101755.34;7395120;19;20096;-53
2023/06/09 01:21:12;;;;;;;14.13;5.05;;;;;;;15.95;67.45;101756.72;7394398;19;20018;-54
2023/06/09 01:24:14;;;;;;;13.15;4.93;;;;;;;15.96;67.45;101753.06;7393750;19;20093;-53
2023/06/09 01:26:43;;;;;;;14.20;4.75;;;;;;;15.88;67.75;101746.66;7394837;19;20019;-54
2023/06/09 01:29:13;;;;;;;12.80;5.10;;;;;;;16.00;67.43;101753.66;7394597;19;20014;-55
2023/06/09 01:31:41;;;;;;;15.52;5.20;;;;;;;15.95;67.63;101761.19;7394803;19;20035;-54
2023/06/09 01:34:09;;;;;;;14.70;5.30;;;;;;;15.90;67.75;101760.72;7394778;19;20023;-57
2023/06/09 01:36:36;;;;;;;13.00;5.00;;;;;;;15.91;67.80;101762.41;7395199;19;20026;-54
2023/06/09 01:39:05;;;;;;;12.98;4.97;;;;;;;15.84;68.04;101760.25;7394291;19;20460;-54
2023/06/09 01:41:32;;;;;;;17.15;5.65;;;;;;;15.87;67.87;101756.44;7393894;19;20342;-54
2023/06/09 01:43:59;;;;;;;12.85;5.20;;;;;;;15.94;67.80;101757.66;7392739;19;20026;-59
2023/06/09 01:46:26;;;;;;;16.30;5.78;;;;;;;15.94;67.90;101748.81;7394484;19;20090;-58
2023/06/09 01:49:14;;;;;;;14.00;4.90;;;;;;;15.88;68.41;101752.00;7393050;19;20019;-63
2023/06/09 01:51:56;;;;;;;14.90;5.72;;;;;;;15.91;67.87;101749.03;7392014;19;20483;-60
2023/06/09 01:54:40;;;;;;;14.95;5.68;;;;;;;15.88;68.18;101750.16;7393043;19;20056;-59
2023/06/09 01:57:21;;;;;;;17.13;5.68;;;;;;;15.85;68.32;101755.75;7392788;19;20558;-59
2023/06/09 01:59:53;;;;;;;14.73;5.57;;;;;;;15.71;68.46;101748.81;7394160;19;20007;-59
2023/06/09 02:02:23;;;;;;;14.18;5.60;;;;;;;15.74;68.41;101742.41;7393714;19;20022;-60
2023/06/09 02:04:53;;;;;;;14.77;5.70;;;;;;;15.76;68.28;101741.31;7390888;19;20019;-60
2023/06/09 02:07:21;;;;;;;14.18;5.78;;;;;;;15.77;68.23;101745.69;7393555;19;20078;-59
2023/06/09 02:09:49;;;;;;;16.30;6.03;;;;;;;15.80;68.24;101745.44;7392003;19;20010;-59
2023/06/09 02:12:16;;;;;;;16.00;5.82;;;;;;;15.77;68.31;101748.34;7391216;19;20056;-60
2023/06/09 02:14:44;;;;;;;14.65;5.25;;;;;;;15.77;68.25;101750.16;7392438;19;20019;-60
2023/06/09 02:17:12;;;;;;;12.90;6.28;;;;;;;15.74;68.45;101751.25;7393843;19;20014;-59
2023/06/09 02:19:39;;;;;;;12.30;5.03;;;;;;;15.73;68.43;101751.38;7392863;19;20015;-60
2023/06/09 02:22:07;;;;;;;15.40;5.35;;;;;;;15.70;68.63;101747.13;7392554;19;20491;-59
2023/06/09 02:24:34;;;;;;;13.98;5.53;;;;;;;15.72;68.46;101761.22;7392425;19;20018;-59
2023/06/09 02:27:03;;;;;;;12.95;5.78;;;;;;;15.78;68.10;101757.19;7392916;19;20014;-59
2023/06/09 02:29:30;;;;;;;15.00;5.70;;;;;;;15.78;68.29;101763.38;7393239;19;20026;-60
2023/06/09 02:31:59;;;;;;;12.57;5.80;;;;;;;15.88;67.69;101765.34;7392172;19;20445;-61
2023/06/09 02:34:29;;;;;;;15.55;5.50;;;;;;;15.79;67.92;101762.41;7392161;19;20018;-60
2023/06/09 02:37:00;;;;;;;15.38;5.78;;;;;;;15.72;68.16;101757.69;7392833;19;20496;-60
2023/06/09 02:39:28;;;;;;;13.82;6.25;;;;;;;15.66;68.31;101755.50;7392724;19;20023;-65
2023/06/09 02:41:55;;;;;;;14.00;5.72;;;;;;;15.68;68.14;101754.44;7391725;19;20014;-65
2023/06/09 02:44:22;;;;;;;16.73;5.90;;;;;;;15.70;68.11;101754.28;7391589;19;20500;-66
2023/06/09 02:46:50;;;;;;;11.98;5.32;;;;;;;15.66;68.42;101759.03;7392259;19;20011;-62
2023/06/09 02:49:17;;;;;;;11.82;5.70;;;;;;;15.44;68.88;101757.16;7392502;19;20092;-62
2023/06/09 02:51:44;;;;;;;16.73;6.03;;;;;;;15.12;70.30;101762.34;7392287;19;20031;-53
2023/06/09 02:54:11;;;;;;;15.35;5.70;;;;;;;14.91;71.14;101759.47;7390621;19;20035;-58
2023/06/09 02:56:43;;;;;;;14.25;5.72;;;;;;;14.87;71.53;101760.66;7392549;19;20042;-58
2023/06/09 02:59:10;;;;;;;15.07;6.05;;;;;;;15.11;70.50;101755.31;7391527;19;20027;-58
2023/06/09 03:01:38;;;;;;;13.32;5.70;;;;;;;15.31;69.80;101759.09;7392022;19;20040;-58
2023/06/09 03:04:06;;;;;;;13.57;5.68;;;;;;;15.37;69.42;101766.59;7391725;19;20029;-58
2023/06/09 03:06:35;;;;;;;13.80;6.20;;;;;;;15.36;69.28;101763.09;7392164;19;20015;-58
2023/06/09 03:09:03;;;;;;;15.13;6.22;;;;;;;15.36;69.37;101763.09;7392206;19;20035;-58
2023/06/09 03:11:30;;;;;;;18.63;7.15;;;;;;;15.40;69.22;101770.88;7390853;19;20039;-56
2023/06/09 03:13:57;;;;;;;15.43;7.57;;;;;;;15.47;68.90;101766.75;7390451;19;20377;-57
2023/06/09 03:16:25;;;;;;;17.52;7.35;;;;;;;15.47;68.76;101761.41;7391090;19;20014;-56
2023/06/09 03:18:52;;;;;;;14.93;7.15;;;;;;;15.38;69.22;101771.00;7391923;19;20038;-57
2023/06/09 03:21:23;;;;;;;16.83;6.68;;;;;;;15.36;69.17;101767.59;7391220;19;20026;-57
2023/06/09 03:23:51;;;;;;;17.75;6.35;;;;;;;15.37;69.21;101769.28;7391062;19;20518;-54
2023/06/09 03:26:18;;;;;;;18.08;6.50;;;;;;;15.42;68.94;101769.78;7391198;19;20432;-56
2023/06/09 03:28:45;;;;;;;16.55;6.35;;;;;;;15.44;68.95;101773.16;7391447;19;20015;-60
2023/06/09 03:31:13;;;;;;;15.68;6.28;;;;;;;15.44;69.10;101772.31;7390257;19;20018;-55
2023/06/09 03:33:40;;;;;;;15.07;6.43;;;;;;;15.47;68.73;101772.09;7390027;19;20018;-55
2023/06/09 03:36:08;;;;;;;14.45;6.07;;;;;;;15.49;68.93;101779.03;7391138;19;20036;-57
2023/06/09 03:38:36;;;;;;;15.68;6.18;;;;;;;15.48;68.71;101779.97;7390946;19;20051;-54
2023/06/09 03:41:03;;;;;;;15.23;6.85;;;;;;;15.50;68.79;101791.41;7389386;19;20018;-56
2023/06/09 03:43:31;;;;;;;16.02;6.40;;;;;;;15.51;68.61;101778.91;7389461;19;20018;-54
2023/06/09 03:45:58;;;;;;;14.10;6.72;;;;;;;15.45;68.85;101777.53;7388933;19;20019;-57
2023/06/09 03:48:25;;;;;;;17.60;6.53;;;;;;;15.49;68.79;101783.47;7390597;19;20523;-56
2023/06/09 03:50:52;;;;;;;13.43;6.20;;;;;;;15.52;68.79;101788.59;7389576;19;20039;-55
2023/06/09 03:53:20;;;;;;;16.13;6.53;;;;;;;15.49;68.69;101779.03;7388395;19;20107;-56
2023/06/09 03:55:47;;;;;;;11.95;5.50;;;;;;;15.46;69.06;101781.94;7389591;19;20018;-56
2023/06/09 03:58:14;;;;;;;13.88;6.60;;;;;;;15.47;69.12;101783.63;7390550;19;20022;-56
2023/06/09 04:00:42;;;;;;;15.40;6.35;;;;;;;15.52;68.91;101786.78;7387827;19;20022;-56
2023/06/09 04:03:09;;;;;;;15.55;6.93;;;;;;;15.57;68.79;101791.78;7390248;19;20043;-56
2023/06/09 04:05:37;;;;;;;15.15;6.88;;;;;;;15.53;68.71;101783.16;7388863;19;20019;-56
2023/06/09 04:08:04;;;;;;;15.35;6.65;;;;;;;15.48;68.78;101792.47;7390305;19;20437;-56
2023/06/09 04:10:31;;;;;;;15.77;6.32;;;;;;;15.54;68.69;101784.00;7389056;19;20487;-59
2023/06/09 04:12:58;;;;;;;14.82;6.88;;;;;;;15.57;68.48;101783.75;7389354;19;20018;-58
2023/06/09 04:15:26;;;;;;;13.85;6.10;;;;;;;15.55;68.82;101783.03;7388227;19;20061;-55
2023/06/09 04:17:53;;;;;;;16.23;6.57;;;;;;;15.48;68.91;101784.47;7388704;19;20015;-56
2023/06/09 04:20:22;;;;;;;16.20;6.88;;;;;;;15.58;68.75;101778.28;7389359;19;20044;-55
2023/06/09 04:22:51;;;;;;;14.70;6.13;;;;;;;15.65;68.38;101784.03;7389572;19;20138;-57
2023/06/09 04:25:27;;;;;;;14.40;6.47;;;;;;;15.69;68.30;101785.50;7387979;19;20015;-58
2023/06/09 04:27:56;;;;;;;15.02;6.25;;;;;;;15.71;68.38;101772.84;7393111;19;20014;-57
2023/06/09 04:30:26;;;;;;;14.55;6.70;;;;;;;15.72;68.30;101773.69;7396433;19;20022;-56
2023/06/09 04:32:54;;;;;;;15.10;6.70;;;;;;;15.73;68.46;101767.41;7396360;19;20029;-58
2023/06/09 04:35:22;;;;;;;16.33;6.82;;;;;;;15.76;68.06;101765.34;7394498;19;20022;-59
2023/06/09 04:37:50;;;;;;;14.10;6.60;;;;;;;15.67;68.61;101775.91;7397498;19;20471;-61
2023/06/09 04:40:21;;;;;;;15.98;6.93;;;;;;;15.62;68.83;101770.88;7396785;19;20025;-61
2023/06/09 04:42:55;;;;;;;15.90;7.03;;;;;;;15.59;68.95;101784.47;7396547;19;20021;-61
2023/06/09 04:45:33;;;;;;;14.23;6.65;;;;;;;15.69;68.64;101776.63;7393538;19;20042;-60
2023/06/09 04:48:01;;;;;;;16.70;6.88;;;;;;;15.70;68.61;101771.16;7397104;19;20030;-61
2023/06/09 04:50:32;;;;;;;15.20;6.93;;;;;;;15.68;68.85;101780.25;7394365;19;20029;-61
2023/06/09 04:53:03;;;;;;;14.27;6.50;;;;;;;15.70;68.70;101781.84;7396122;19;20305;-60
2023/06/09 04:55:32;;;;;;;15.18;6.32;;;;;;;15.75;68.49;101784.16;7394159;19;20023;-60
2023/06/09 04:57:59;;;;;;;15.55;6.95;;;;;;;15.77;68.63;101783.06;7395740;19;20045;-62
2023/06/09 05:00:27;;;;;;;17.40;6.93;;;;;;;15.75;68.76;101785.00;7394563;19;20022;-60
2023/06/09 05:02:59;;;;;;;13.93;6.97;;;;;;;15.68;69.15;101791.81;7393838;19;20482;-60
2023/06/09 05:05:27;;;;;;;16.92;8.02;;;;;;;15.66;69.13;101788.41;7394300;19;20026;-61
2023/06/09 05:07:54;;;;;;;15.35;7.70;;;;;;;15.72;69.00;101789.72;7395732;19;20095;-60
2023/06/09 05:10:21;;;;;;;17.27;7.30;;;;;;;15.77;69.05;101784.88;7396251;19;20018;-60
2023/06/09 05:12:49;;;;;;;15.15;7.18;;;;;;;15.83;69.04;101793.28;7393764;19;20021;-64
2023/06/09 05:15:16;;;;;;;19.67;7.43;;;;;;;15.91;68.78;101792.66;7392626;19;20022;-58
2023/06/09 05:17:44;;;;;;;19.00;7.70;;;;;;;15.90;68.65;101792.78;7395823;19;20014;-60
2023/06/09 05:20:11;;;;;;;14.00;7.57;;;;;;;15.95;68.43;101795.91;7394189;19;20051;-61
2023/06/09 05:22:39;;;;;;;15.23;7.88;;;;;;;16.03;68.22;101793.50;7394895;19;20047;-60
2023/06/09 05:25:08;;;;;;;15.40;7.32;;;;;;;16.01;68.48;101800.78;7393194;19;20051;-65
2023/06/09 05:27:36;;;;;;;16.15;7.95;;;;;;;15.99;68.80;101800.91;7394674;19;20122;-62
2023/06/09 05:30:04;;;;;;;19.83;7.55;;;;;;;16.04;68.64;101806.72;7395437;19;20086;-65
2023/06/09 05:32:31;;;;;;;18.88;7.65;;;;;;;16.06;68.81;101799.47;7394182;19;20026;-64
2023/06/09 05:35:00;;;;;;;17.15;7.55;;;;;;;16.10;68.66;101805.38;7393076;19;20030;-64
2023/06/09 05:37:28;;;;;;;14.63;7.53;;;;;;;16.15;68.83;101807.69;7394631;19;20018;-63
2023/06/09 05:39:55;;;;;;;17.85;7.32;;;;;;;16.22;68.58;101811.59;7392548;19;20023;-63
2023/06/09 05:42:22;;;;;;;15.18;7.45;;;;;;;16.28;68.73;101808.41;7393748;19;20100;-64
2023/06/09 05:44:49;;;;;;;14.02;6.95;;;;;;;16.30;68.90;101801.97;7391660;19;20026;-61
2023/06/09 05:47:17;;;;;;;18.67;7.43;;;;;;;16.37;68.84;101801.44;7394994;19;20100;-63
2023/06/09 05:49:44;;;;;;;15.05;7.53;;;;;;;16.47;68.50;101799.72;7393014;19;20018;-61
2023/06/09 05:52:11;;;;;;;17.25;7.38;;;;;;;16.53;68.22;101799.25;7392755;19;20105;-61
2023/06/09 05:54:38;;;;;;;14.60;7.60;;;;;;;16.66;68.01;101807.09;7394542;19;20021;-62
2023/06/09 05:57:06;;;;;;;16.23;7.38;;;;;;;16.77;67.72;101817.78;7393969;19;20024;-66
2023/06/09 05:59:34;;;;;;;15.85;7.43;;;;;;;16.80;67.55;101815.72;7393812;19;20015;-61
2023/06/09 06:02:01;;;;;;;16.73;7.70;;;;;;;16.87;67.56;101812.53;7393238;19;20049;-61
2023/06/09 06:04:29;;;;;;;16.23;7.57;;;;;;;16.95;67.25;101815.41;7392430;19;20042;-61
2023/06/09 06:06:57;;;;;;;14.77;6.88;;;;;;;17.01;67.23;101815.72;7393477;19;20018;-61
2023/06/09 06:09:24;;;;;;;14.52;6.90;;;;;;;17.05;66.99;101819.84;7392897;19;20019;-62
2023/06/09 06:11:51;;;;;;;14.40;6.85;;;;;;;17.09;66.79;101817.75;7391594;19;20022;-62
2023/06/09 06:14:19;;;;;;;14.75;7.20;;;;;;;17.17;66.76;101814.44;7392221;19;20044;-62
2023/06/09 06:16:46;;;;;;;17.40;8.10;;;;;;;17.20;66.69;101817.69;7393652;19;20060;-62
2023/06/09 06:19:13;;;;;;;15.32;7.57;;;;;;;17.21;66.93;101819.41;7392908;19;20095;-62
2023/06/09 06:21:43;;;;;;;18.50;7.72;;;;;;;17.22;66.92;101821.13;7390854;19;20416;-61
2023/06/09 06:24:11;;;;;;;14.77;7.18;;;;;;;17.27;66.92;101826.06;7392066;19;20039;-60
2023/06/09 06:26:38;;;;;;;19.80;7.55;;;;;;;17.37;66.80;101826.16;7393077;19;20052;-60
2023/06/09 06:29:06;;;;;;;16.77;7.38;;;;;;;17.47;66.85;101824.34;7393170;19;20147;-61
2023/06/09 06:31:33;;;;;;;14.13;6.93;;;;;;;17.57;66.67;101817.25;7392711;19;20080;-60
2023/06/09 06:34:00;;;;;;;14.52;7.05;;;;;;;17.67;66.52;101822.66;7391757;19;20019;-60
2023/06/09 06:36:30;;;;;;;20.20;7.30;;;;;;;17.75;65.89;101818.38;7392482;19;20018;-61
2023/06/09 06:38:57;;;;;;;15.85;7.28;;;;;;;17.83;65.95;101822.22;7393484;19;20350;-62
2023/06/09 06:41:25;;;;;;;18.80;6.95;;;;;;;17.90;65.66;101829.56;7390036;19;20015;-62
2023/06/09 06:43:53;;;;;;;14.40;7.13;;;;;;;17.98;65.38;101823.53;7392031;19;20031;-63
2023/06/09 06:46:20;;;;;;;14.63;6.80;;;;;;;18.04;65.43;101820.31;7391841;19;20015;-63
2023/06/09 06:48:48;;;;;;;14.23;6.50;;;;;;;18.13;65.03;101826.72;7392823;19;20456;-63
2023/06/09 06:51:15;;;;;;;15.23;6.65;;;;;;;18.22;64.45;101825.88;7390007;19;20018;-64
2023/06/09 06:53:42;;;;;;;18.65;7.00;;;;;;;18.29;64.08;101820.81;7391865;19;20021;-65
2023/06/09 06:56:09;;;;;;;13.02;6.50;;;;;;;18.40;63.06;101821.56;7392411;19;20024;-64
2023/06/09 06:58:36;;;;;;;12.57;6.47;;;;;;;18.40;62.76;101818.88;7391237;19;20022;-64
2023/06/09 07:01:04;;;;;;;12.30;6.25;;;;;;;18.45;62.58;101823.81;7390385;19;20022;-64
2023/06/09 07:03:33;;;;;;;13.13;6.07;;;;;;;18.50;61.84;101827.75;7392279;19;20056;-63
2023/06/09 07:06:01;;;;;;;15.68;6.47;;;;;;;18.56;61.76;101821.00;7388694;19;20014;-63
2023/06/09 07:08:28;;;;;;;11.32;5.75;;;;;;;18.65;61.32;101820.16;7390865;19;20022;-64
2023/06/09 07:10:56;;;;;;;13.02;5.63;;;;;;;18.74;61.08;101823.91;7391123;19;20047;-63
2023/06/09 07:13:23;;;;;;;11.95;5.78;;;;;;;18.79;60.90;101821.63;7390563;19;20043;-63
2023/06/09 07:15:50;;;;;;;12.75;5.65;;;;;;;18.85;60.07;101822.91;7390387;19;20086;-63
2023/06/09 07:18:17;;;;;;;11.23;5.60;;;;;;;18.86;59.96;101821.94;7390649;19;20022;-63
2023/06/09 07:20:47;;;;;;;12.32;5.47;;;;;;;18.88;59.78;101820.78;7390877;19;20047;-63
2023/06/09 07:23:14;;;;;;;11.50;5.85;;;;;;;18.91;59.88;101823.19;7390787;19;20018;-63
2023/06/09 07:25:41;;;;;;;14.52;6.38;;;;;;;18.99;59.35;101834.06;7389935;19;20021;-63
2023/06/09 07:28:09;;;;;;;11.82;5.55;;;;;;;19.09;59.09;101827.84;7390619;19;20019;-63
2023/06/09 07:30:40;;;;;;;11.82;6.55;;;;;;;19.16;58.47;101829.84;7391122;19;20051;-63
2023/06/09 07:33:08;;;;;;;13.75;6.07;;;;;;;19.18;58.47;101833.22;7390938;19;20021;-63
2023/06/09 07:35:35;;;;;;;13.18;5.88;;;;;;;19.24;58.76;101826.44;7389687;19;20039;-63
2023/06/09 07:38:03;;;;;;;13.85;6.03;;;;;;;19.33;58.34;101830.94;7390894;19;20025;-64
2023/06/09 07:40:30;;;;;;;14.15;6.30;;;;;;;19.33;58.54;101830.94;7389813;19;20022;-63
2023/06/09 07:42:58;;;;;;;11.98;5.70;;;;;;;19.34;58.82;101823.72;7390910;19;20543;-64
2023/06/09 07:45:25;;;;;;;15.32;6.10;;;;;;;19.47;58.45;101822.44;7388576;19;20028;-64
2023/06/09 07:47:52;;;;;;;12.10;5.90;;;;;;;19.56;57.73;101826.06;7390727;19;20026;-63
2023/06/09 07:50:19;;;;;;;12.27;5.75;;;;;;;19.52;57.94;101830.06;7390172;19;20098;-63
2023/06/09 07:52:47;;;;;;;14.07;6.28;;;;;;;19.55;57.84;101829.75;7388833;19;20025;-64
2023/06/09 07:55:14;;;;;;;12.20;5.82;;;;;;;19.60;57.63;101821.25;7388525;19;20021;-63
2023/06/09 07:57:43;;;;;;;9.50;4.90;;;;;;;19.71;56.72;101823.81;7387967;19;20018;-63
2023/06/09 08:00:13;;;;;;;13.52;5.63;;;;;;;19.76;56.50;101826.03;7389745;19;20483;-63
2023/06/09 08:02:42;;;;;;;10.82;5.50;;;;;;;19.72;56.80;101826.34;7390439;19;20048;-62
2023/06/09 08:05:09;;;;;;;13.55;5.75;;;;;;;19.76;57.20;101828.72;7395413;19;20011;-64
2023/06/09 08:07:38;;;;;;;11.15;5.43;;;;;;;19.79;57.42;101823.91;7397738;19;20048;-63
2023/06/09 08:10:05;;;;;;;12.13;5.30;;;;;;;19.89;56.89;101829.28;7395817;19;20018;-63
2023/06/09 08:12:36;;;;;;;11.52;5.50;;;;;;;19.90;56.40;101831.81;7396546;19;20035;-63
2023/06/09 08:15:03;;;;;;;12.30;5.60;;;;;;;19.91;56.99;101822.72;7395592;19;20014;-63
2023/06/09 08:17:30;;;;;;;13.40;5.32;;;;;;;19.95;57.23;101828.66;7397153;19;20019;-63
2023/06/09 08:19:58;;;;;;;10.98;5.38;;;;;;;20.07;56.48;101829.31;7397178;19;20025;-63
2023/06/09 08:22:25;;;;;;;9.68;4.70;;;;;;;20.17;55.55;101828.28;7396271;19;20015;-64
2023/06/09 08:24:52;;;;;;;9.65;5.07;;;;;;;20.20;54.46;101821.75;7394479;19;20019;-63
2023/06/09 08:27:20;;;;;;;12.60;5.05;;;;;;;20.23;54.11;101824.16;7396515;19;20097;-64
2023/06/09 08:29:48;;;;;;;12.52;5.35;;;;;;;20.26;54.48;101825.69;7397369;19;20047;-63
2023/06/09 08:32:16;;;;;;;8.80;4.70;;;;;;;20.29;54.06;101820.00;7394068;19;20018;-64
2023/06/09 08:34:43;;;;;;;11.10;5.20;;;;;;;20.32;54.43;101825.94;7395412;19;20022;-64
2023/06/09 08:37:11;;;;;;;9.75;4.70;;;;;;;20.44;54.28;101813.97;7396514;19;20090;-63
2023/06/09 08:39:39;;;;;;;12.95;5.18;;;;;;;20.50;53.59;101820.63;7396964;19;20042;-64
2023/06/09 08:42:20;;;;;;;13.38;5.30;;;;;;;20.62;53.05;101816.72;7396354;19;20044;-64
2023/06/09 08:44:50;;;;;;;11.82;4.90;;;;;;;20.59;53.08;101814.31;7394997;19;20019;-64
2023/06/09 08:47:20;;;;;;;11.07;5.32;;;;;;;20.66;52.84;101820.78;7396409;19;20018;-65
2023/06/09 08:49:51;;;;;;;10.85;5.38;;;;;;;20.63;52.95;101818.41;7396448;19;20375;-64
2023/06/09 08:52:19;;;;;;;11.63;5.25;;;;;;;20.64;52.57;101817.41;7395420;19;20046;-63
2023/06/09 08:54:47;;;;;;;12.20;5.35;;;;;;;20.69;52.60;101808.88;7394463;19;20040;-63
2023/06/09 08:57:15;;;;;;;14.65;5.57;;;;;;;20.85;52.56;101814.41;7394737;19;20131;-63
2023/06/09 08:59:44;;;;;;;13.80;5.68;;;;;;;20.99;51.81;101818.41;7395279;19;20040;-64
2023/06/09 09:02:12;;;;;;;11.73;4.85;;;;;;;20.99;52.16;101813.03;7393618;19;20048;-64
2023/06/09 09:04:39;;;;;;;11.30;5.10;;;;;;;20.97;51.79;101819.56;7394689;19;20014;-61
2023/06/09 09:07:09;;;;;;;12.63;5.22;;;;;;;21.07;51.52;101813.09;7395642;19;20019;-61
2023/06/09 09:09:36;;;;;;;15.25;5.30;;;;;;;21.20;51.31;101814.53;7394599;19;20074;-61
2023/06/09 09:12:04;;;;;;;11.10;5.38;;;;;;;21.12;50.79;101813.47;7395007;19;20022;-61
2023/06/09 09:14:31;;;;;;;11.82;5.95;;;;;;;21.13;51.33;101812.44;7393831;19;20396;-61
2023/06/09 09:16:59;;;;;;;12.10;5.18;;;;;;;21.20;51.54;101815.38;7395553;19;20044;-61
2023/06/09 09:19:27;;;;;;;9.45;5.07;;;;;;;21.25;51.43;101818.44;7395927;19;20019;-61
2023/06/09 09:21:56;;;;;;;12.30;5.43;;;;;;;21.29;50.53;101806.38;7395336;19;20010;-61
2023/06/09 09:24:29;;;;;;;10.05;4.90;;;;;;;21.39;49.99;101806.28;7394886;19;20086;-62
2023/06/09 09:26:57;;;;;;;11.98;4.90;;;;;;;21.45;50.51;101799.44;7393335;19;20019;-61
2023/06/09 09:29:28;;;;;;;10.98;4.80;;;;;;;21.42;50.30;101800.56;7395094;19;20018;-61
2023/06/09 09:31:59;;;;;;;9.13;4.80;;;;;;;21.51;49.37;101799.63;7393936;19;20028;-61
2023/06/09 09:34:26;;;;;;;10.57;4.95;;;;;;;21.50;50.07;101797.94;7393778;19;20497;-61
2023/06/09 09:37:01;;;;;;;12.23;4.72;;;;;;;21.63;49.02;101795.63;7392428;19;20018;-61
2023/06/09 09:39:29;;;;;;;13.05;4.90;;;;;;;21.71;48.73;101800.25;7394373;19;20022;-60
2023/06/09 09:42:08;;;;;;;12.18;5.50;;;;;;;21.64;48.88;101799.19;7393481;19;20022;-61
2023/06/09 09:44:40;;;;;;;11.30;4.60;;;;;;;21.69;48.91;101788.78;7393660;19;20471;-62
2023/06/09 09:47:15;;;;;;;10.95;5.43;;;;;;;21.83;47.70;101795.44;7393419;19;20018;-62
2023/06/09 09:50:00;;;;;;;10.25;4.55;;;;;;;21.88;47.49;101793.09;7393929;19;20019;-62
2023/06/09 09:52:38;;;;;;;12.30;5.18;;;;;;;21.81;47.78;101790.19;7393792;19;20014;-61
2023/06/09 09:55:07;;;;;;;11.77;4.78;;;;;;;21.88;47.82;101790.38;7393315;19;20487;-61
2023/06/09 09:57:36;;;;;;;11.15;4.70;;;;;;;21.89;47.61;101790.22;7393910;19;20018;-62
2023/06/09 10:00:09;;;;;;;10.15;4.50;;;;;;;22.03;46.54;101787.91;7394657;19;20032;-62
2023/06/09 10:02:42;;;;;;;11.52;4.25;;;;;;;22.02;45.95;101789.78;7393704;19;20049;-62
2023/06/09 10:05:11;;;;;;;11.13;4.80;;;;;;;22.27;45.30;101790.72;7393336;19;20022;-62
2023/06/09 10:07:42;;;;;;;9.77;4.40;;;;;;;22.34;43.75;101785.50;7393591;19;20085;-63
2023/06/09 10:10:09;;;;;;;13.25;4.30;;;;;;;22.24;43.16;101785.66;7394160;19;20018;-62
2023/06/09 10:12:37;;;;;;;11.52;4.18;;;;;;;22.27;43.24;101781.78;7393153;19;20475;-62
2023/06/09 10:15:10;;;;;;;9.30;4.20;;;;;;;22.29;43.29;101780.63;7392366;19;20014;-62
2023/06/09 10:17:40;;;;;;;8.80;4.60;;;;;;;22.32;42.77;101782.13;7394365;19;20015;-61
2023/06/09 10:20:09;;;;;;;8.30;4.25;;;;;;;22.40;41.59;101779.47;7393680;19;20018;-62
2023/06/09 10:22:36;;;;;;;10.65;4.18;;;;;;;22.44;40.81;101767.31;7392799;19;20025;-62
2023/06/09 10:25:06;;;;;;;11.25;4.25;;;;;;;22.51;40.52;101783.69;7390008;19;20504;-62
2023/06/09 10:27:34;;;;;;;12.07;4.20;;;;;;;22.56;40.96;101774.09;7393971;19;20020;-62
2023/06/09 10:30:03;;;;;;;9.77;3.85;;;;;;;22.54;41.35;101773.41;7393729;19;20047;-62
2023/06/09 10:32:33;;;;;;;9.32;3.72;;;;;;;22.55;40.85;101775.13;7392840;19;20419;-62
2023/06/09 10:35:02;;;;;;;8.45;4.10;;;;;;;22.57;40.06;101774.94;7392058;19;20047;-62
2023/06/09 10:37:32;;;;;;;11.15;3.88;;;;;;;22.58;39.59;101769.34;7393549;19;20018;-61
2023/06/09 10:40:23;;;;;;;9.85;3.78;;;;;;;22.77;38.63;101775.44;7391312;19;20780;-62
2023/06/09 10:43:02;;;;;;;10.73;3.90;;;;;;;22.86;37.57;101764.50;7391022;19;20511;-62
2023/06/09 10:45:54;;;;;;;7.80;3.60;;;;;;;22.84;38.05;101773.75;7390912;19;20019;-62
2023/06/09 10:48:51;;;;;;;10.70;4.13;;;;;;;22.88;38.26;101775.13;7393249;19;20046;-62
2023/06/09 10:51:36;;;;;;;8.77;3.83;;;;;;;22.95;37.52;101769.91;7390275;19;20051;-63
2023/06/09 10:54:12;;;;;;;7.32;3.53;;;;;;;23.05;36.65;101782.25;7393026;19;20138;-61
2023/06/09 10:56:57;;;;;;;12.07;3.70;;;;;;;23.00;36.59;101768.38;7391137;19;20018;-62
2023/06/09 10:59:25;;;;;;;8.70;3.90;;;;;;;22.92;36.49;101765.69;7392516;19;20028;-63
2023/06/09 11:02:01;;;;;;;8.48;3.50;;;;;;;22.98;35.81;101767.72;7391088;19;20018;-63
2023/06/09 11:04:39;;;;;;;6.15;3.30;;;;;;;23.12;36.17;101763.47;7392183;19;20026;-62
2023/06/09 11:07:14;;;;;;;7.25;3.70;;;;;;;23.15;35.82;101763.13;7390570;19;20022;-61
2023/06/09 11:09:49;;;;;;;9.63;3.67;;;;;;;23.27;35.18;101759.06;7392394;19;20026;-61
2023/06/09 11:12:25;;;;;;;7.20;3.63;;;;;;;23.29;34.80;101758.91;7390951;19;20014;-62
2023/06/09 11:14:58;;;;;;;9.02;3.50;;;;;;;23.20;34.74;101757.22;7391366;19;20047;-62
2023/06/09 11:17:39;;;;;;;6.60;3.47;;;;;;;23.29;34.83;101751.63;7392124;19;20022;-62
2023/06/09 11:20:10;;;;;;;7.38;3.63;;;;;;;23.35;34.90;101755.50;7392142;19;20022;-62
2023/06/09 11:22:42;;;;;;;6.25;3.42;;;;;;;23.48;34.84;101753.13;7391196;19;20077;-61
2023/06/09 11:25:18;;;;;;;7.28;3.83;;;;;;;23.52;34.92;101753.59;7390901;19;20018;-62
2023/06/09 11:28:09;;;;;;;8.75;3.20;;;;;;;23.56;34.41;101750.38;7391306;19;20494;-62